Time;durP1;ratioP1;P1;durP2;ratioP2;P2;SDS_P1;SDS_P2;PMS_P1;PMS_P2;Temp;Humidity;BMP_temperature;BMP_pressure;BME280_temperature;BME280_humidity;BME280_pressure;Samples;Min_cycle;Max_cycle;Signal;HPM_P1;HPM_P2
2023/10/24 00:00:34;;;;;;;19.50;17.50;;;;;;;-141.22;100.00;65034.22;4992431;28;20516;-40
2023/10/24 00:03:03;;;;;;;19.90;18.20;;;;;;;-141.22;100.00;65034.22;4990555;28;20480;-40
2023/10/24 00:05:31;;;;;;;20.87;18.97;;;;;;;-141.22;100.00;65034.22;4991394;28;20438;-40
2023/10/24 00:07:58;;;;;;;19.17;17.67;;;;;;;-141.22;100.00;65034.22;4999189;28;20469;-40
2023/10/24 00:10:26;;;;;;;18.77;17.50;;;;;;;-141.22;100.00;65034.22;4991393;28;20587;-38
2023/10/24 00:12:54;;;;;;;18.07;16.60;;;;;;;-141.22;100.00;65034.22;4991152;28;20806;-42
2023/10/24 00:15:21;;;;;;;17.43;16.07;;;;;;;-141.22;100.00;65034.22;4991287;28;20537;-41
2023/10/24 00:17:49;;;;;;;20.83;16.93;;;;;;;-141.22;100.00;65034.22;4990870;28;20834;-43
2023/10/24 00:20:18;;;;;;;17.47;15.93;;;;;;;-141.22;100.00;65034.22;4991443;28;20445;-40
2023/10/24 00:22:46;;;;;;;17.37;15.97;;;;;;;-141.22;100.00;65034.22;4999283;28;20513;-43
2023/10/24 00:25:13;;;;;;;16.90;15.37;;;;;;;-141.22;100.00;65034.22;4998200;28;20994;-41
2023/10/24 00:27:41;;;;;;;16.20;14.90;;;;;;;-141.22;100.00;65034.22;4991052;28;20466;-41
2023/10/24 00:30:10;;;;;;;16.70;15.40;;;;;;;-141.22;100.00;65034.22;4991014;28;20434;-40
2023/10/24 00:32:38;;;;;;;16.07;14.47;;;;;;;-141.22;100.00;65034.22;4990995;28;20449;-38
2023/10/24 00:35:06;;;;;;;16.53;15.40;;;;;;;-141.22;100.00;65034.22;4998634;28;20457;-38
2023/10/24 00:37:35;;;;;;;16.60;15.37;;;;;;;-141.22;100.00;65034.22;4997092;28;20461;-39
2023/10/24 00:40:04;;;;;;;16.40;15.20;;;;;;;-141.22;100.00;65034.22;4993799;28;20438;-39
2023/10/24 00:42:32;;;;;;;16.90;15.50;;;;;;;-141.22;100.00;65034.22;4996064;28;20540;-39
2023/10/24 00:45:00;;;;;;;18.30;16.90;;;;;;;-141.22;100.00;65034.22;4998461;28;20492;-39
2023/10/24 00:47:28;;;;;;;19.03;16.60;;;;;;;-141.22;100.00;65034.22;5004575;28;20460;-38
2023/10/24 00:49:56;;;;;;;17.10;15.90;;;;;;;-141.22;100.00;65034.22;4992774;28;20993;-38
2023/10/24 00:52:24;;;;;;;16.57;15.47;;;;;;;-141.22;100.00;65034.22;4991302;28;20441;-38
2023/10/24 00:54:53;;;;;;;19.00;17.40;;;;;;;-141.22;100.00;65034.22;4991906;28;20819;-40
2023/10/24 00:57:22;;;;;;;19.33;17.83;;;;;;;-141.22;100.00;65034.22;5007378;28;21052;-45
2023/10/24 00:59:50;;;;;;;18.20;16.83;;;;;;;-141.22;100.00;65034.22;4997968;28;20442;-42
2023/10/24 01:02:19;;;;;;;19.70;18.40;;;;;;;-141.22;100.00;65034.22;5001863;28;20855;-38
2023/10/24 01:04:48;;;;;;;18.57;17.00;;;;;;;-141.22;100.00;65034.22;4993802;28;20929;-40
2023/10/24 01:07:16;;;;;;;17.03;15.87;;;;;;;-141.22;100.00;65034.22;4998477;28;20460;-42
2023/10/24 01:09:44;;;;;;;16.60;15.60;;;;;;;-141.22;100.00;65034.22;4998427;28;20441;-38
2023/10/24 01:12:13;;;;;;;16.33;15.23;;;;;;;-141.22;100.00;65034.22;4994819;28;20860;-41
2023/10/24 01:14:41;;;;;;;18.27;16.70;;;;;;;-141.22;100.00;65034.22;5002414;28;20462;-43
2023/10/24 01:17:12;;;;;;;20.17;18.17;;;;;;;-141.22;100.00;65034.22;4993946;28;20441;-38
2023/10/24 01:19:40;;;;;;;20.43;18.50;;;;;;;-141.22;100.00;65034.22;4994745;28;20438;-40
2023/10/24 01:22:09;;;;;;;19.60;17.80;;;;;;;-141.22;100.00;65034.22;4993954;28;20445;-43
2023/10/24 01:24:37;;;;;;;16.70;15.33;;;;;;;-141.22;100.00;65034.22;4993950;28;20474;-41
2023/10/24 01:27:05;;;;;;;17.70;16.20;;;;;;;-141.22;100.00;65034.22;4993754;28;20441;-43
2023/10/24 01:29:33;;;;;;;17.70;16.30;;;;;;;-141.22;100.00;65034.22;4994218;28;20471;-39
2023/10/24 01:32:01;;;;;;;17.97;16.50;;;;;;;-141.22;100.00;65034.22;4993674;28;21008;-38
2023/10/24 01:34:29;;;;;;;16.97;15.77;;;;;;;-141.22;100.00;65034.22;5007114;28;20495;-40
2023/10/24 01:36:57;;;;;;;16.60;15.50;;;;;;;-141.22;100.00;65034.22;5004967;28;20453;-40
2023/10/24 01:39:26;;;;;;;20.67;18.30;;;;;;;-141.22;100.00;65034.22;5000468;28;20437;-39
2023/10/24 01:41:54;;;;;;;17.27;16.03;;;;;;;-141.22;100.00;65034.22;4993708;28;20533;-40
2023/10/24 01:44:21;;;;;;;16.70;15.70;;;;;;;-141.22;100.00;65034.22;4993744;28;20602;-42
2023/10/24 01:46:49;;;;;;;16.00;15.00;;;;;;;-141.22;100.00;65034.22;4993434;28;20442;-38
2023/10/24 01:49:17;;;;;;;20.13;18.10;;;;;;;-141.22;100.00;65034.22;4997796;28;20548;-39
2023/10/24 01:51:45;;;;;;;19.30;17.67;;;;;;;-141.22;100.00;65034.22;4997595;28;20442;-37
2023/10/24 01:54:13;;;;;;;19.77;17.80;;;;;;;-141.22;100.00;65034.22;5001164;28;20501;-38
2023/10/24 01:56:42;;;;;;;18.20;16.80;;;;;;;-141.22;100.00;65034.22;5008649;28;20789;-40
2023/10/24 01:59:10;;;;;;;20.83;18.63;;;;;;;-141.22;100.00;65034.22;4994226;28;21028;-41
2023/10/24 02:01:37;;;;;;;19.37;17.50;;;;;;;-141.22;100.00;65034.22;5008355;28;20472;-39
2023/10/24 02:04:06;;;;;;;19.57;17.73;;;;;;;-141.22;100.00;65034.22;4994102;28;20964;-38
2023/10/24 02:06:34;;;;;;;18.60;17.10;;;;;;;-141.22;100.00;65034.22;4992793;28;20474;-41
2023/10/24 02:09:02;;;;;;;24.00;21.40;;;;;;;-141.22;100.00;65034.22;4993181;28;20516;-39
2023/10/24 02:11:29;;;;;;;24.33;20.37;;;;;;;-141.22;100.00;65034.22;4993196;28;20454;-40
2023/10/24 02:13:58;;;;;;;24.97;20.97;;;;;;;-141.22;100.00;65034.22;4992638;28;20490;-42
2023/10/24 02:16:26;;;;;;;18.00;16.90;;;;;;;-141.22;100.00;65034.22;4992949;28;20442;-41
2023/10/24 02:18:54;;;;;;;18.00;16.63;;;;;;;-141.22;100.00;65034.22;4993085;28;20911;-38
2023/10/24 02:21:22;;;;;;;19.73;18.33;;;;;;;-141.22;100.00;65034.22;4993376;28;20442;-38
2023/10/24 02:23:49;;;;;;;18.47;17.03;;;;;;;-141.22;100.00;65034.22;4992669;28;20528;-39
2023/10/24 02:26:17;;;;;;;18.50;17.10;;;;;;;-141.22;100.00;65034.22;4993205;28;20448;-40
2023/10/24 02:28:45;;;;;;;20.10;18.30;;;;;;;-141.22;100.00;65034.22;4992859;28;21061;-38
2023/10/24 02:31:14;;;;;;;18.67;17.27;;;;;;;-141.22;100.00;65034.22;5001105;28;20798;-40
2023/10/24 02:33:42;;;;;;;19.97;18.40;;;;;;;-141.22;100.00;65034.22;4992642;28;20462;-40
2023/10/24 02:36:11;;;;;;;18.00;16.60;;;;;;;-141.22;100.00;65034.22;4992491;28;20430;-38
2023/10/24 02:38:39;;;;;;;17.70;16.30;;;;;;;-141.22;100.00;65034.22;5001099;28;21071;-42
2023/10/24 02:41:06;;;;;;;19.20;17.73;;;;;;;-141.22;100.00;65034.22;4993469;28;20937;-39
2023/10/24 02:43:34;;;;;;;18.03;16.53;;;;;;;-141.22;100.00;65034.22;4992897;28;20462;-39
2023/10/24 02:46:03;;;;;;;17.10;15.70;;;;;;;-141.22;100.00;65034.22;5002762;28;20433;-39
2023/10/24 02:48:33;;;;;;;18.10;16.80;;;;;;;-141.22;100.00;65034.22;4999711;28;21043;-39
2023/10/24 02:51:01;;;;;;;19.43;17.80;;;;;;;-141.22;100.00;65034.22;5001335;28;20441;-40
2023/10/24 02:53:29;;;;;;;18.07;16.60;;;;;;;-141.22;100.00;65034.22;4997955;28;20492;-39
2023/10/24 02:56:02;;;;;;;14.37;13.67;;;;;;;-141.22;100.00;65034.22;4995714;28;20434;-39
2023/10/24 02:58:29;;;;;;;14.77;14.00;;;;;;;-141.22;100.00;65034.22;4992997;28;20462;-43
2023/10/24 03:01:03;;;;;;;15.20;14.10;;;;;;;-141.22;100.00;65034.22;5009814;28;20790;-39
2023/10/24 03:03:33;;;;;;;14.30;12.90;;;;;;;-141.22;100.00;65034.22;5012302;28;20825;-39
2023/10/24 03:06:01;;;;;;;14.17;13.20;;;;;;;-141.22;100.00;65034.22;5003354;28;20473;-39
2023/10/24 03:08:28;;;;;;;12.90;12.20;;;;;;;-141.22;100.00;65034.22;4997975;28;20900;-39
2023/10/24 03:10:56;;;;;;;14.40;12.63;;;;;;;-141.22;100.00;65034.22;5012548;28;20929;-39
2023/10/24 03:13:24;;;;;;;12.70;11.90;;;;;;;-141.22;100.00;65034.22;5012252;28;20484;-39
2023/10/24 03:15:51;;;;;;;10.70;10.20;;;;;;;-141.22;100.00;65034.22;5004302;28;20441;-40
2023/10/24 03:18:19;;;;;;;11.03;10.13;;;;;;;-141.22;100.00;65034.22;4996360;28;20462;-41
2023/10/24 03:20:48;;;;;;;11.93;11.13;;;;;;;-141.22;100.00;65034.22;5005037;28;20438;-41
2023/10/24 03:23:16;;;;;;;10.90;10.40;;;;;;;-141.22;100.00;65034.22;4995347;28;20548;-40
2023/10/24 03:25:44;;;;;;;12.73;11.60;;;;;;;-141.22;100.00;65034.22;5005587;28;20583;-39
2023/10/24 03:28:11;;;;;;;11.30;10.57;;;;;;;-141.22;100.00;65034.22;5002906;28;20517;-39
2023/10/24 03:30:39;;;;;;;11.97;11.10;;;;;;;-141.22;100.00;65034.22;5005512;28;20452;-40
2023/10/24 03:33:07;;;;;;;12.30;11.20;;;;;;;-141.22;100.00;65034.22;4991974;28;20438;-39
2023/10/24 03:35:36;;;;;;;13.47;12.43;;;;;;;-141.22;100.00;65034.22;4996870;28;20805;-39
2023/10/24 03:38:05;;;;;;;11.93;11.17;;;;;;;-141.22;100.00;65034.22;5005291;28;20455;-39
2023/10/24 03:40:33;;;;;;;12.43;11.63;;;;;;;-141.22;100.00;65034.22;5004949;28;20456;-39
2023/10/24 03:43:01;;;;;;;13.07;12.20;;;;;;;-141.22;100.00;65034.22;4996483;28;21118;-39
2023/10/24 03:45:29;;;;;;;12.50;11.77;;;;;;;-141.22;100.00;65034.22;4997201;28;20896;-40
2023/10/24 03:47:57;;;;;;;12.00;11.40;;;;;;;-141.22;100.00;65034.22;4990165;28;20462;-39
2023/10/24 03:50:25;;;;;;;11.93;11.13;;;;;;;-141.22;100.00;65034.22;5003232;28;20511;-42
2023/10/24 03:52:53;;;;;;;10.73;10.13;;;;;;;-141.22;100.00;65034.22;5001992;28;20433;-40
2023/10/24 03:55:22;;;;;;;10.27;9.33;;;;;;;-141.22;100.00;65034.22;4998779;28;20441;-41
2023/10/24 03:57:50;;;;;;;10.27;9.57;;;;;;;-141.22;100.00;65034.22;4998617;28;20540;-40
2023/10/24 04:00:18;;;;;;;12.67;11.77;;;;;;;-141.22;100.00;65034.22;5001828;28;20491;-39
2023/10/24 04:02:47;;;;;;;12.67;11.80;;;;;;;-141.22;100.00;65034.22;5002252;28;20523;-39
2023/10/24 04:05:15;;;;;;;11.03;10.33;;;;;;;-141.22;100.00;65034.22;5001569;28;20834;-40
2023/10/24 04:07:43;;;;;;;11.40;10.60;;;;;;;-141.22;100.00;65034.22;4995651;28;20461;-39
2023/10/24 04:10:14;;;;;;;12.03;10.90;;;;;;;-141.22;100.00;65034.22;4992486;28;20806;-40
2023/10/24 04:12:43;;;;;;;10.90;10.20;;;;;;;-141.22;100.00;65034.22;5010260;28;20826;-38
2023/10/24 04:15:11;;;;;;;11.40;10.70;;;;;;;-141.22;100.00;65034.22;4991232;28;20454;-41
2023/10/24 04:17:39;;;;;;;11.40;10.60;;;;;;;-141.22;100.00;65034.22;4990474;28;20822;-41
2023/10/24 04:20:08;;;;;;;10.90;10.30;;;;;;;-141.22;100.00;65034.22;4991665;28;20502;-39
2023/10/24 04:22:36;;;;;;;11.20;10.50;;;;;;;-141.22;100.00;65034.22;5001953;28;20457;-41
2023/10/24 04:25:04;;;;;;;11.53;10.50;;;;;;;-141.22;100.00;65034.22;4993005;28;20928;-39
2023/10/24 04:27:32;;;;;;;11.80;10.90;;;;;;;-141.22;100.00;65034.22;5001850;28;20876;-40
2023/10/24 04:30:02;;;;;;;10.83;10.13;;;;;;;-141.22;100.00;65034.22;4993021;28;20484;-39
2023/10/24 04:32:30;;;;;;;12.23;10.93;;;;;;;-141.22;100.00;65034.22;4994573;28;20952;-39
2023/10/24 04:34:58;;;;;;;12.70;11.80;;;;;;;-141.22;100.00;65034.22;5009270;28;20883;-39
2023/10/24 04:37:26;;;;;;;13.43;12.23;;;;;;;-141.22;100.00;65034.22;4993953;28;20534;-39
2023/10/24 04:39:54;;;;;;;14.63;13.30;;;;;;;-141.22;100.00;65034.22;4994452;28;20954;-39
2023/10/24 04:42:23;;;;;;;15.30;14.10;;;;;;;-141.22;100.00;65034.22;4998302;28;20456;-39
2023/10/24 04:44:51;;;;;;;13.60;12.70;;;;;;;-141.22;100.00;65034.22;4989803;28;20496;-41
2023/10/24 04:47:20;;;;;;;13.43;12.60;;;;;;;-141.22;100.00;65034.22;4997875;28;20965;-41
2023/10/24 04:49:48;;;;;;;15.60;14.40;;;;;;;-141.22;100.00;65034.22;4996987;28;20558;-39
2023/10/24 04:52:15;;;;;;;13.67;12.87;;;;;;;-141.22;100.00;65034.22;5001905;28;20441;-41
2023/10/24 04:54:44;;;;;;;15.13;14.03;;;;;;;-141.22;100.00;65034.22;4995275;28;20465;-38
2023/10/24 04:57:11;;;;;;;13.13;12.43;;;;;;;-141.22;100.00;65034.22;4997738;28;20447;-38
2023/10/24 04:59:39;;;;;;;16.47;15.33;;;;;;;-141.22;100.00;65034.22;4995172;28;20527;-39
2023/10/24 05:02:08;;;;;;;14.90;13.90;;;;;;;-141.22;100.00;65034.22;5000849;28;20991;-42
2023/10/24 05:04:37;;;;;;;14.97;13.87;;;;;;;-141.22;100.00;65034.22;4994082;28;20461;-39
2023/10/24 05:07:06;;;;;;;15.47;14.47;;;;;;;-141.22;100.00;65034.22;4992551;28;20473;-38
2023/10/24 05:09:36;;;;;;;13.97;12.90;;;;;;;-141.22;100.00;65034.22;4998262;28;20438;-39
2023/10/24 05:12:05;;;;;;;14.13;13.20;;;;;;;-141.22;100.00;65034.22;4998222;28;20449;-41
2023/10/24 05:14:33;;;;;;;14.90;13.40;;;;;;;-141.22;100.00;65034.22;4989711;28;20548;-39
2023/10/24 05:17:01;;;;;;;15.33;13.97;;;;;;;-141.22;100.00;65034.22;4989511;28;20485;-39
2023/10/24 05:19:28;;;;;;;18.13;12.80;;;;;;;-141.22;100.00;65034.22;4990068;28;20450;-40
2023/10/24 05:21:58;;;;;;;15.47;14.27;;;;;;;-141.22;100.00;65034.22;4990234;28;20501;-39
2023/10/24 05:24:25;;;;;;;13.40;12.33;;;;;;;-141.22;100.00;65034.22;4989411;28;20462;-39
2023/10/24 05:26:53;;;;;;;14.33;13.30;;;;;;;-141.22;100.00;65034.22;4989583;28;20484;-40
2023/10/24 05:29:22;;;;;;;13.20;12.13;;;;;;;-141.22;100.00;65034.22;4989996;28;20446;-39
2023/10/24 05:31:49;;;;;;;14.43;13.43;;;;;;;-141.22;100.00;65034.22;4990151;28;20444;-39
2023/10/24 05:34:17;;;;;;;13.73;12.70;;;;;;;-141.22;100.00;65034.22;4989355;28;20472;-39
2023/10/24 05:36:46;;;;;;;14.67;13.67;;;;;;;-141.22;100.00;65034.22;4995143;28;20951;-41
2023/10/24 05:39:15;;;;;;;16.53;13.93;;;;;;;-141.22;100.00;65034.22;4999941;28;20837;-39
2023/10/24 05:41:43;;;;;;;14.33;13.33;;;;;;;-141.22;100.00;65034.22;4991132;28;20450;-40
2023/10/24 05:44:11;;;;;;;17.10;15.33;;;;;;;-141.22;100.00;65034.22;4992757;28;20468;-42
2023/10/24 05:46:39;;;;;;;16.40;15.20;;;;;;;-141.22;100.00;65034.22;4992963;28;20477;-39
2023/10/24 05:49:07;;;;;;;16.70;15.20;;;;;;;-141.22;100.00;65034.22;5001290;28;21028;-41
2023/10/24 05:51:35;;;;;;;18.30;16.90;;;;;;;-141.22;100.00;65034.22;5000770;28;20430;-39
2023/10/24 05:54:03;;;;;;;17.50;16.60;;;;;;;-141.22;100.00;65034.22;5000641;28;20544;-39
2023/10/24 05:56:33;;;;;;;17.93;16.50;;;;;;;-141.22;100.00;65034.22;4993028;28;20496;-40
2023/10/24 05:59:01;;;;;;;17.93;16.47;;;;;;;-141.22;100.00;65034.22;4992937;28;20828;-39
2023/10/24 06:01:28;;;;;;;18.50;16.90;;;;;;;-141.22;100.00;65034.22;5001011;28;20484;-41
2023/10/24 06:03:56;;;;;;;18.80;17.17;;;;;;;-141.22;100.00;65034.22;4999199;28;21026;-39
2023/10/24 06:06:24;;;;;;;18.83;17.33;;;;;;;-141.22;100.00;65034.22;5001383;28;20472;-40
2023/10/24 06:08:52;;;;;;;21.10;18.93;;;;;;;-141.22;100.00;65034.22;4992602;28;20471;-40
2023/10/24 06:11:20;;;;;;;20.53;18.53;;;;;;;-141.22;100.00;65034.22;4992611;28;20502;-39
2023/10/24 06:13:49;;;;;;;19.50;17.50;;;;;;;-141.22;100.00;65034.22;5000646;28;20519;-41
2023/10/24 06:16:17;;;;;;;20.83;19.13;;;;;;;-141.22;100.00;65034.22;5000322;28;20461;-44
2023/10/24 06:18:45;;;;;;;22.23;20.33;;;;;;;-141.22;100.00;65034.22;5000464;28;20472;-42
2023/10/24 06:21:13;;;;;;;23.57;21.33;;;;;;;-141.22;100.00;65034.22;5001064;28;20441;-42
2023/10/24 06:23:41;;;;;;;23.20;21.20;;;;;;;-141.22;100.00;65034.22;4998851;28;20498;-43
2023/10/24 06:26:13;;;;;;;22.43;20.47;;;;;;;-141.22;100.00;65034.22;5000195;28;20504;-39
2023/10/24 06:28:41;;;;;;;22.97;21.27;;;;;;;-141.22;100.00;65034.22;5000561;28;20503;-40
2023/10/24 06:31:10;;;;;;;22.37;20.67;;;;;;;-141.22;100.00;65034.22;4992328;28;20521;-42
2023/10/24 06:33:39;;;;;;;24.07;21.87;;;;;;;-141.22;100.00;65034.22;4991548;28;20697;-39
2023/10/24 06:36:07;;;;;;;22.43;20.27;;;;;;;-141.22;100.00;65034.22;4999994;28;20513;-40
2023/10/24 06:38:35;;;;;;;22.20;20.30;;;;;;;-141.22;100.00;65034.22;4996132;28;20500;-41
2023/10/24 06:41:03;;;;;;;23.40;21.60;;;;;;;-141.22;100.00;65034.22;5004525;28;20442;-40
2023/10/24 06:43:30;;;;;;;24.67;22.67;;;;;;;-141.22;100.00;65034.22;5002861;28;20465;-39
2023/10/24 06:45:58;;;;;;;24.03;21.63;;;;;;;-141.22;100.00;65034.22;5011333;28;20436;-39
2023/10/24 06:48:27;;;;;;;27.40;24.80;;;;;;;-141.22;100.00;65034.22;5003426;28;20466;-41
2023/10/24 06:50:55;;;;;;;26.63;24.13;;;;;;;-141.22;100.00;65034.22;5011780;28;20547;-38
2023/10/24 06:53:23;;;;;;;25.90;23.60;;;;;;;-141.22;100.00;65034.22;5010504;28;20492;-39
2023/10/24 06:55:51;;;;;;;28.47;25.77;;;;;;;-141.22;100.00;65034.22;5003321;28;21049;-39
2023/10/24 06:58:18;;;;;;;27.87;24.87;;;;;;;-141.22;100.00;65034.22;5011074;28;20461;-39
2023/10/24 07:00:46;;;;;;;29.37;26.40;;;;;;;-141.22;100.00;65034.22;5011480;28;20437;-39
2023/10/24 07:03:15;;;;;;;28.03;25.43;;;;;;;-141.22;100.00;65034.22;5010853;28;20467;-39
2023/10/24 07:05:49;;;;;;;29.03;26.43;;;;;;;-141.22;100.00;65034.22;5006948;28;20457;-40
2023/10/24 07:08:17;;;;;;;27.47;24.77;;;;;;;-141.22;100.00;65034.22;5000687;28;21039;-39
2023/10/24 07:10:45;;;;;;;32.97;27.70;;;;;;;-141.22;100.00;65034.22;5011681;28;20441;-46
2023/10/24 07:13:13;;;;;;;28.97;26.13;;;;;;;-141.22;100.00;65034.22;5010620;28;20467;-39
2023/10/24 07:15:41;;;;;;;28.70;25.83;;;;;;;-141.22;100.00;65034.22;5011160;28;20468;-40
2023/10/24 07:18:09;;;;;;;28.13;25.70;;;;;;;-141.22;100.00;65034.22;5011133;28;20479;-39
2023/10/24 07:20:37;;;;;;;28.13;25.70;;;;;;;-141.22;100.00;65034.22;5011249;28;20437;-40
2023/10/24 07:23:07;;;;;;;29.63;26.67;;;;;;;-141.22;100.00;65034.22;5010778;28;20472;-40
2023/10/24 07:25:35;;;;;;;28.20;25.63;;;;;;;-141.22;100.00;65034.22;5002788;28;20521;-43
2023/10/24 07:28:04;;;;;;;29.97;27.00;;;;;;;-141.22;100.00;65034.22;5010800;28;20492;-44
2023/10/24 07:30:31;;;;;;;29.30;26.60;;;;;;;-141.22;100.00;65034.22;5019696;22;20495;-41
2023/10/24 07:32:59;;;;;;;31.07;28.03;;;;;;;-141.22;100.00;65034.22;4996170;28;21026;-42
2023/10/24 07:35:27;;;;;;;31.07;27.83;;;;;;;-141.22;100.00;65034.22;4994511;28;20464;-41
2023/10/24 07:37:55;;;;;;;30.00;27.23;;;;;;;-141.22;100.00;65034.22;5006095;28;20430;-43
2023/10/24 07:40:24;;;;;;;30.87;27.73;;;;;;;-141.22;100.00;65034.22;4993589;28;20442;-42
2023/10/24 07:42:51;;;;;;;30.87;27.80;;;;;;;-141.22;100.00;65034.22;5006138;28;21096;-42
2023/10/24 07:45:19;;;;;;;32.37;29.33;;;;;;;-141.22;100.00;65034.22;5009622;28;20433;-42
2023/10/24 07:47:47;;;;;;;31.40;28.47;;;;;;;-141.22;100.00;65034.22;4994343;28;20985;-42
2023/10/24 07:50:15;;;;;;;30.77;27.73;;;;;;;-141.22;100.00;65034.22;5006045;28;20438;-42
2023/10/24 07:52:42;;;;;;;30.73;27.93;;;;;;;-141.22;100.00;65034.22;5011888;28;20488;-44
2023/10/24 07:55:10;;;;;;;30.20;27.23;;;;;;;-141.22;100.00;65034.22;4995399;28;20585;-43
2023/10/24 07:57:39;;;;;;;30.43;27.43;;;;;;;-141.22;100.00;65034.22;4992269;28;20426;-43
2023/10/24 08:00:09;;;;;;;31.23;28.33;;;;;;;-141.22;100.00;65034.22;4992504;28;20437;-42
2023/10/24 08:02:37;;;;;;;30.43;27.57;;;;;;;-141.22;100.00;65034.22;4992197;28;20461;-45
2023/10/24 08:05:05;;;;;;;28.90;26.00;;;;;;;-141.22;100.00;65034.22;4991204;28;20468;-42
2023/10/24 08:07:33;;;;;;;29.93;27.20;;;;;;;-141.22;100.00;65034.22;4991616;28;20481;-42
2023/10/24 08:10:00;;;;;;;29.00;26.47;;;;;;;-141.22;100.00;65034.22;4992287;28;20806;-41
2023/10/24 08:12:28;;;;;;;30.23;27.23;;;;;;;-141.22;100.00;65034.22;4992005;28;20617;-45
2023/10/24 08:14:57;;;;;;;31.63;28.47;;;;;;;-141.22;100.00;65034.22;4991582;28;20457;-41
2023/10/24 08:17:25;;;;;;;30.40;27.50;;;;;;;-141.22;100.00;65034.22;4991899;28;20805;-42
2023/10/24 08:19:52;;;;;;;33.43;28.03;;;;;;;-141.22;100.00;65034.22;4992206;28;20489;-42
2023/10/24 08:22:20;;;;;;;30.10;27.10;;;;;;;-141.22;100.00;65034.22;4991756;28;20457;-43
2023/10/24 08:24:48;;;;;;;28.50;25.80;;;;;;;-141.22;100.00;65034.22;4991447;28;20480;-42
2023/10/24 08:27:16;;;;;;;29.23;26.43;;;;;;;-141.22;100.00;65034.22;4991612;28;20576;-41
2023/10/24 08:29:43;;;;;;;28.17;25.27;;;;;;;-141.22;100.00;65034.22;4991683;28;20436;-42
2023/10/24 08:32:12;;;;;;;26.27;23.87;;;;;;;-141.22;100.00;65034.22;4991584;28;20462;-41
2023/10/24 08:34:42;;;;;;;29.63;26.60;;;;;;;-141.22;100.00;65034.22;4983782;28;20489;-42
2023/10/24 08:37:11;;;;;;;27.70;24.80;;;;;;;-141.22;100.00;65034.22;4991573;28;20430;-41
2023/10/24 08:39:39;;;;;;;31.07;27.87;;;;;;;-141.22;100.00;65034.22;4983938;28;20434;-43
2023/10/24 08:42:10;;;;;;;26.47;24.10;;;;;;;-141.22;100.00;65034.22;4991795;28;20521;-42
2023/10/24 08:44:40;;;;;;;38.70;25.93;;;;;;;-141.22;100.00;65034.22;4991082;28;20460;-42
2023/10/24 08:47:08;;;;;;;27.57;25.10;;;;;;;-141.22;100.00;65034.22;4991468;28;20492;-42
2023/10/24 08:49:39;;;;;;;28.23;24.67;;;;;;;-141.22;100.00;65034.22;4991637;28;20433;-41
2023/10/24 08:52:07;;;;;;;27.47;24.67;;;;;;;-141.22;100.00;65034.22;4991722;28;20535;-41
2023/10/24 08:54:57;;;;;;;26.30;24.00;;;;;;;-141.22;100.00;65034.22;4985096;28;20467;-43
2023/10/24 08:57:28;;;;;;;24.23;22.10;;;;;;;-141.22;100.00;65034.22;4993946;28;20431;-41
2023/10/24 08:59:58;;;;;;;27.67;25.10;;;;;;;-141.22;100.00;65034.22;4991737;28;20504;-42
2023/10/24 09:02:26;;;;;;;27.07;24.60;;;;;;;-141.22;100.00;65034.22;4991253;28;20833;-41
2023/10/24 09:04:56;;;;;;;26.73;24.27;;;;;;;-141.22;100.00;65034.22;4991090;28;20462;-40
2023/10/24 09:07:24;;;;;;;24.67;22.10;;;;;;;-141.22;100.00;65034.22;4991072;28;20524;-42
2023/10/24 09:09:51;;;;;;;25.20;22.83;;;;;;;-141.22;100.00;65034.22;4991229;28;20845;-41
2023/10/24 09:12:19;;;;;;;24.60;22.60;;;;;;;-141.22;100.00;65034.22;4991230;28;20894;-41
2023/10/24 09:14:48;;;;;;;25.80;23.20;;;;;;;-141.22;100.00;65034.22;4990800;28;20481;-41
2023/10/24 09:17:23;;;;;;;26.53;24.17;;;;;;;-141.22;100.00;65034.22;4994886;28;20966;-40
2023/10/24 09:19:52;;;;;;;30.70;24.53;;;;;;;-141.22;100.00;65034.22;4995160;28;20426;-40
2023/10/24 09:22:21;;;;;;;29.03;26.23;;;;;;;-141.22;100.00;65034.22;4994854;28;20821;-40
2023/10/24 09:24:50;;;;;;;28.73;25.77;;;;;;;-141.22;100.00;65034.22;4994477;28;20924;-41
2023/10/24 09:27:24;;;;;;;28.17;25.50;;;;;;;-141.22;100.00;65034.22;4994395;28;21023;-40
2023/10/24 09:29:52;;;;;;;27.33;24.43;;;;;;;-141.22;100.00;65034.22;4994896;28;20433;-41
2023/10/24 09:32:21;;;;;;;24.87;22.70;;;;;;;-141.22;100.00;65034.22;4994494;28;20468;-40
2023/10/24 09:34:49;;;;;;;25.27;22.70;;;;;;;-141.22;100.00;65034.22;4994456;28;20458;-40
2023/10/24 09:37:17;;;;;;;25.60;22.83;;;;;;;-141.22;100.00;65034.22;4994455;28;20438;-40
2023/10/24 09:39:57;;;;;;;24.17;21.90;;;;;;;-141.22;100.00;65034.22;4995087;28;20434;-40
2023/10/24 09:42:26;;;;;;;26.90;24.37;;;;;;;-141.22;100.00;65034.22;4994506;28;20453;-40
2023/10/24 09:45:00;;;;;;;25.53;22.97;;;;;;;-141.22;100.00;65034.22;4994114;28;20516;-41
2023/10/24 09:47:28;;;;;;;24.93;22.53;;;;;;;-141.22;100.00;65034.22;4994216;28;20440;-41
2023/10/24 09:49:58;;;;;;;28.03;25.07;;;;;;;-141.22;100.00;65034.22;4994809;28;20956;-40
2023/10/24 09:52:27;;;;;;;26.33;23.83;;;;;;;-141.22;100.00;65034.22;4994350;28;20473;-40
2023/10/24 09:54:58;;;;;;;27.87;25.07;;;;;;;-141.22;100.00;65034.22;4993955;28;20563;-41
2023/10/24 09:57:28;;;;;;;27.67;25.00;;;;;;;-141.22;100.00;65034.22;4994065;28;20856;-40
2023/10/24 09:59:59;;;;;;;27.97;25.27;;;;;;;-141.22;100.00;65034.22;4994114;28;20967;-42
2023/10/24 10:02:28;;;;;;;26.77;24.23;;;;;;;-141.22;100.00;65034.22;4994354;28;20446;-40
2023/10/24 10:04:56;;;;;;;28.63;26.13;;;;;;;-141.22;100.00;65034.22;4993706;28;20842;-40
2023/10/24 10:07:26;;;;;;;32.07;27.03;;;;;;;-141.22;100.00;65034.22;4994015;28;20461;-40
2023/10/24 10:09:57;;;;;;;27.50;24.63;;;;;;;-141.22;100.00;65034.22;4994231;28;20473;-41
2023/10/24 10:12:27;;;;;;;29.43;26.43;;;;;;;-141.22;100.00;65034.22;4994011;28;20550;-40
2023/10/24 10:15:13;;;;;;;26.77;24.37;;;;;;;-141.22;100.00;65034.22;4993623;28;20465;-41
2023/10/24 10:17:54;;;;;;;28.47;25.57;;;;;;;-141.22;100.00;65034.22;4993689;28;20436;-42
2023/10/24 10:20:43;;;;;;;28.73;26.13;;;;;;;-141.22;100.00;65034.22;4993907;28;20444;-41
2023/10/24 10:23:31;;;;;;;28.03;25.73;;;;;;;-141.22;100.00;65034.22;4993580;28;20929;-40
2023/10/24 10:26:07;;;;;;;28.73;26.23;;;;;;;-141.22;100.00;65034.22;4993873;28;20437;-40
2023/10/24 10:28:49;;;;;;;29.33;26.83;;;;;;;-141.22;100.00;65034.22;4993281;28;20477;-40
2023/10/24 10:31:34;;;;;;;29.30;26.63;;;;;;;-141.22;100.00;65034.22;4993756;28;20477;-41
2023/10/24 10:34:33;;;;;;;31.83;28.70;;;;;;;-141.22;100.00;65034.22;4993668;28;20903;-40
2023/10/24 10:37:03;;;;;;;29.73;27.07;;;;;;;-141.22;100.00;65034.22;4994102;28;20434;-41
2023/10/24 10:39:30;;;;;;;31.13;28.00;;;;;;;-141.22;100.00;65034.22;4994075;28;20851;-40
2023/10/24 10:42:00;;;;;;;27.73;25.30;;;;;;;-141.22;100.00;65034.22;4993823;28;20520;-40
2023/10/24 10:44:39;;;;;;;28.83;26.43;;;;;;;-141.22;100.00;65034.22;4993435;28;20469;-40
2023/10/24 10:47:14;;;;;;;29.00;26.40;;;;;;;-141.22;100.00;65034.22;4994057;28;20446;-42
2023/10/24 10:49:48;;;;;;;28.20;25.80;;;;;;;-141.22;100.00;65034.22;4993858;28;20544;-40
2023/10/24 10:52:39;;;;;;;29.30;26.53;;;;;;;-141.22;100.00;65034.22;4993686;28;20845;-40
2023/10/24 10:55:24;;;;;;;28.80;26.30;;;;;;;-141.22;100.00;65034.22;4993279;28;20458;-40
2023/10/24 10:58:05;;;;;;;30.33;27.43;;;;;;;-141.22;100.00;65034.22;4993648;28;20857;-40
2023/10/24 11:00:43;;;;;;;31.70;27.80;;;;;;;-141.22;100.00;65034.22;4992893;28;20468;-40
2023/10/24 11:03:31;;;;;;;29.67;26.87;;;;;;;-141.22;100.00;65034.22;4992915;28;21009;-40